sensor_id;sensor_type;location;lat;lon;timestamp;P1;durP1;ratioP1;P2;durP2;ratioP2
72951;SDS011;61102;51.956;5.878;2022-11-23T00:01:31;6.30;;;1.23;;
72951;SDS011;61102;51.956;5.878;2022-11-23T00:04:00;4.40;;;1.13;;
72951;SDS011;61102;51.956;5.878;2022-11-23T00:06:33;3.90;;;1.10;;
72951;SDS011;61102;51.956;5.878;2022-11-23T00:08:59;7.72;;;1.55;;
72951;SDS011;61102;51.956;5.878;2022-11-23T00:11:26;5.95;;;1.20;;
72951;SDS011;61102;51.956;5.878;2022-11-23T00:13:53;8.25;;;2.00;;
72951;SDS011;61102;51.956;5.878;2022-11-23T00:16:22;4.47;;;1.27;;
72951;SDS011;61102;51.956;5.878;2022-11-23T00:18:52;7.43;;;1.55;;
72951;SDS011;61102;51.956;5.878;2022-11-23T00:21:24;6.45;;;1.48;;
72951;SDS011;61102;51.956;5.878;2022-11-23T00:23:52;5.13;;;1.55;;
72951;SDS011;61102;51.956;5.878;2022-11-23T00:26:22;7.20;;;1.95;;
72951;SDS011;61102;51.956;5.878;2022-11-23T00:28:48;4.43;;;1.15;;
72951;SDS011;61102;51.956;5.878;2022-11-23T00:31:18;6.57;;;1.60;;
72951;SDS011;61102;51.956;5.878;2022-11-23T00:33:52;4.93;;;1.13;;
72951;SDS011;61102;51.956;5.878;2022-11-23T00:36:20;8.40;;;1.60;;
72951;SDS011;61102;51.956;5.878;2022-11-23T00:38:51;6.32;;;1.63;;
72951;SDS011;61102;51.956;5.878;2022-11-23T00:41:23;9.35;;;2.10;;
72951;SDS011;61102;51.956;5.878;2022-11-23T00:43:53;6.07;;;1.42;;
72951;SDS011;61102;51.956;5.878;2022-11-23T00:46:25;6.90;;;1.67;;
72951;SDS011;61102;51.956;5.878;2022-11-23T00:48:53;7.78;;;1.77;;
72951;SDS011;61102;51.956;5.878;2022-11-23T00:51:23;7.88;;;1.63;;
72951;SDS011;61102;51.956;5.878;2022-11-23T00:53:57;6.88;;;1.70;;
72951;SDS011;61102;51.956;5.878;2022-11-23T00:56:27;7.00;;;1.77;;
72951;SDS011;61102;51.956;5.878;2022-11-23T00:58:55;8.10;;;1.90;;
72951;SDS011;61102;51.956;5.878;2022-11-23T01:01:25;6.82;;;2.17;;
72951;SDS011;61102;51.956;5.878;2022-11-23T01:03:56;6.88;;;1.73;;
72951;SDS011;61102;51.956;5.878;2022-11-23T01:06:27;7.13;;;1.70;;
72951;SDS011;61102;51.956;5.878;2022-11-23T01:08:58;4.20;;;1.25;;
72951;SDS011;61102;51.956;5.878;2022-11-23T01:11:28;6.30;;;1.30;;
72951;SDS011;61102;51.956;5.878;2022-11-23T01:13:56;6.75;;;1.50;;
72951;SDS011;61102;51.956;5.878;2022-11-23T01:18:54;7.25;;;1.60;;
72951;SDS011;61102;51.956;5.878;2022-11-23T01:21:26;8.35;;;2.28;;
72951;SDS011;61102;51.956;5.878;2022-11-23T01:23:55;8.57;;;2.10;;
72951;SDS011;61102;51.956;5.878;2022-11-23T01:26:23;5.13;;;1.52;;
72951;SDS011;61102;51.956;5.878;2022-11-23T01:28:49;6.18;;;1.48;;
72951;SDS011;61102;51.956;5.878;2022-11-23T01:31:21;7.10;;;1.40;;
72951;SDS011;61102;51.956;5.878;2022-11-23T01:33:52;7.88;;;1.88;;
72951;SDS011;61102;51.956;5.878;2022-11-23T01:36:28;6.95;;;1.90;;
72951;SDS011;61102;51.956;5.878;2022-11-23T01:38:59;6.95;;;1.83;;
72951;SDS011;61102;51.956;5.878;2022-11-23T01:41:31;6.03;;;1.50;;
72951;SDS011;61102;51.956;5.878;2022-11-23T01:46:54;6.63;;;1.23;;
72951;SDS011;61102;51.956;5.878;2022-11-23T01:49:26;9.73;;;1.60;;
72951;SDS011;61102;51.956;5.878;2022-11-23T01:51:58;8.82;;;1.67;;
72951;SDS011;61102;51.956;5.878;2022-11-23T01:54:47;7.03;;;1.40;;
72951;SDS011;61102;51.956;5.878;2022-11-23T01:57:17;11.13;;;1.63;;
72951;SDS011;61102;51.956;5.878;2022-11-23T01:59:47;6.93;;;1.20;;
72951;SDS011;61102;51.956;5.878;2022-11-23T02:02:14;8.23;;;1.40;;
72951;SDS011;61102;51.956;5.878;2022-11-23T02:04:42;7.65;;;1.40;;
72951;SDS011;61102;51.956;5.878;2022-11-23T02:07:13;6.57;;;1.10;;
72951;SDS011;61102;51.956;5.878;2022-11-23T02:09:40;4.28;;;0.90;;
72951;SDS011;61102;51.956;5.878;2022-11-23T02:12:09;5.43;;;1.30;;
72951;SDS011;61102;51.956;5.878;2022-11-23T02:14:36;6.68;;;1.23;;
72951;SDS011;61102;51.956;5.878;2022-11-23T02:17:05;5.80;;;1.20;;
72951;SDS011;61102;51.956;5.878;2022-11-23T02:22:21;6.25;;;1.10;;
72951;SDS011;61102;51.956;5.878;2022-11-23T02:24:53;6.75;;;1.30;;
72951;SDS011;61102;51.956;5.878;2022-11-23T02:27:22;5.25;;;1.13;;
72951;SDS011;61102;51.956;5.878;2022-11-23T02:29:50;5.78;;;1.13;;
72951;SDS011;61102;51.956;5.878;2022-11-23T02:32:22;5.55;;;1.10;;
72951;SDS011;61102;51.956;5.878;2022-11-23T02:34:56;5.20;;;1.13;;
72951;SDS011;61102;51.956;5.878;2022-11-23T02:37:22;5.93;;;1.00;;
72951;SDS011;61102;51.956;5.878;2022-11-23T02:39:51;6.50;;;0.90;;
72951;SDS011;61102;51.956;5.878;2022-11-23T02:42:18;10.40;;;1.50;;
72951;SDS011;61102;51.956;5.878;2022-11-23T02:47:12;9.32;;;1.40;;
72951;SDS011;61102;51.956;5.878;2022-11-23T02:49:39;4.90;;;1.10;;
72951;SDS011;61102;51.956;5.878;2022-11-23T02:52:06;7.43;;;1.33;;
72951;SDS011;61102;51.956;5.878;2022-11-23T02:54:33;5.28;;;1.20;;
72951;SDS011;61102;51.956;5.878;2022-11-23T02:57:00;10.55;;;1.50;;
72951;SDS011;61102;51.956;5.878;2022-11-23T02:59:28;4.97;;;1.08;;
72951;SDS011;61102;51.956;5.878;2022-11-23T03:02:04;5.80;;;1.10;;
72951;SDS011;61102;51.956;5.878;2022-11-23T03:04:30;7.68;;;1.27;;
72951;SDS011;61102;51.956;5.878;2022-11-23T03:06:57;6.32;;;1.05;;
72951;SDS011;61102;51.956;5.878;2022-11-23T03:09:24;3.72;;;0.85;;
72951;SDS011;61102;51.956;5.878;2022-11-23T03:11:53;1.90;;;0.70;;
72951;SDS011;61102;51.956;5.878;2022-11-23T03:14:19;8.07;;;1.00;;
72951;SDS011;61102;51.956;5.878;2022-11-23T03:16:54;5.05;;;1.10;;
72951;SDS011;61102;51.956;5.878;2022-11-23T03:19:23;6.72;;;1.30;;
72951;SDS011;61102;51.956;5.878;2022-11-23T03:21:53;2.95;;;0.68;;
72951;SDS011;61102;51.956;5.878;2022-11-23T03:24:19;4.38;;;0.70;;
72951;SDS011;61102;51.956;5.878;2022-11-23T03:26:47;4.25;;;0.70;;
72951;SDS011;61102;51.956;5.878;2022-11-23T03:29:18;4.82;;;0.80;;
72951;SDS011;61102;51.956;5.878;2022-11-23T03:31:48;4.93;;;0.98;;
72951;SDS011;61102;51.956;5.878;2022-11-23T03:34:17;6.22;;;0.80;;
72951;SDS011;61102;51.956;5.878;2022-11-23T03:36:45;10.52;;;1.02;;
72951;SDS011;61102;51.956;5.878;2022-11-23T03:39:15;7.60;;;0.93;;
72951;SDS011;61102;51.956;5.878;2022-11-23T03:41:54;4.13;;;0.80;;
72951;SDS011;61102;51.956;5.878;2022-11-23T03:44:26;5.13;;;0.90;;
72951;SDS011;61102;51.956;5.878;2022-11-23T03:46:53;5.03;;;0.90;;
72951;SDS011;61102;51.956;5.878;2022-11-23T03:49:19;4.85;;;0.82;;
72951;SDS011;61102;51.956;5.878;2022-11-23T03:51:50;5.35;;;0.80;;
72951;SDS011;61102;51.956;5.878;2022-11-23T03:54:17;4.72;;;1.02;;
72951;SDS011;61102;51.956;5.878;2022-11-23T03:56:44;4.35;;;0.80;;
72951;SDS011;61102;51.956;5.878;2022-11-23T03:59:11;8.00;;;1.20;;
72951;SDS011;61102;51.956;5.878;2022-11-23T04:04:12;4.13;;;0.75;;
72951;SDS011;61102;51.956;5.878;2022-11-23T04:07:01;5.25;;;1.10;;
72951;SDS011;61102;51.956;5.878;2022-11-23T04:09:32;5.85;;;0.80;;
72951;SDS011;61102;51.956;5.878;2022-11-23T04:12:04;7.38;;;1.15;;
72951;SDS011;61102;51.956;5.878;2022-11-23T04:14:33;5.18;;;1.00;;
72951;SDS011;61102;51.956;5.878;2022-11-23T04:16:59;5.55;;;0.90;;
72951;SDS011;61102;51.956;5.878;2022-11-23T04:19:29;7.72;;;1.08;;
72951;SDS011;61102;51.956;5.878;2022-11-23T04:21:57;5.85;;;1.10;;
72951;SDS011;61102;51.956;5.878;2022-11-23T04:24:26;5.82;;;1.30;;
72951;SDS011;61102;51.956;5.878;2022-11-23T04:26:55;6.43;;;0.95;;
72951;SDS011;61102;51.956;5.878;2022-11-23T04:29:21;4.22;;;0.90;;
72951;SDS011;61102;51.956;5.878;2022-11-23T04:31:51;4.07;;;0.80;;
72951;SDS011;61102;51.956;5.878;2022-11-23T04:34:19;6.10;;;1.10;;
72951;SDS011;61102;51.956;5.878;2022-11-23T04:36:47;5.05;;;1.02;;
72951;SDS011;61102;51.956;5.878;2022-11-23T04:39:13;6.18;;;0.70;;
72951;SDS011;61102;51.956;5.878;2022-11-23T04:41:56;5.53;;;0.88;;
72951;SDS011;61102;51.956;5.878;2022-11-23T04:44:23;5.55;;;0.90;;
72951;SDS011;61102;51.956;5.878;2022-11-23T04:46:56;4.43;;;0.70;;
72951;SDS011;61102;51.956;5.878;2022-11-23T04:49:23;6.60;;;0.80;;
72951;SDS011;61102;51.956;5.878;2022-11-23T04:51:50;6.90;;;0.85;;
72951;SDS011;61102;51.956;5.878;2022-11-23T04:54:18;4.88;;;1.00;;
72951;SDS011;61102;51.956;5.878;2022-11-23T04:56:52;6.05;;;1.23;;
72951;SDS011;61102;51.956;5.878;2022-11-23T04:59:19;7.82;;;1.17;;
72951;SDS011;61102;51.956;5.878;2022-11-23T05:01:47;6.63;;;0.80;;
72951;SDS011;61102;51.956;5.878;2022-11-23T05:06:59;4.60;;;0.82;;
72951;SDS011;61102;51.956;5.878;2022-11-23T05:09:32;11.45;;;1.30;;
72951;SDS011;61102;51.956;5.878;2022-11-23T05:12:18;7.95;;;1.20;;
72951;SDS011;61102;51.956;5.878;2022-11-23T05:14:44;10.60;;;1.10;;
72951;SDS011;61102;51.956;5.878;2022-11-23T05:17:14;8.00;;;1.02;;
72951;SDS011;61102;51.956;5.878;2022-11-23T05:19:42;5.53;;;0.90;;
72951;SDS011;61102;51.956;5.878;2022-11-23T05:22:11;5.78;;;0.80;;
72951;SDS011;61102;51.956;5.878;2022-11-23T05:24:41;7.07;;;1.10;;
72951;SDS011;61102;51.956;5.878;2022-11-23T05:27:11;7.65;;;0.95;;
72951;SDS011;61102;51.956;5.878;2022-11-23T05:29:38;8.77;;;0.90;;
72951;SDS011;61102;51.956;5.878;2022-11-23T05:32:05;7.75;;;0.80;;
72951;SDS011;61102;51.956;5.878;2022-11-23T05:34:33;4.85;;;0.88;;
72951;SDS011;61102;51.956;5.878;2022-11-23T05:37:01;5.20;;;0.68;;
72951;SDS011;61102;51.956;5.878;2022-11-23T05:39:29;5.13;;;0.70;;
72951;SDS011;61102;51.956;5.878;2022-11-23T05:41:56;3.80;;;0.68;;
72951;SDS011;61102;51.956;5.878;2022-11-23T05:44:36;3.72;;;0.63;;
72951;SDS011;61102;51.956;5.878;2022-11-23T05:47:05;6.40;;;0.60;;
72951;SDS011;61102;51.956;5.878;2022-11-23T05:49:34;4.20;;;0.65;;
72951;SDS011;61102;51.956;5.878;2022-11-23T05:52:02;5.95;;;0.70;;
72951;SDS011;61102;51.956;5.878;2022-11-23T05:54:30;7.53;;;1.23;;
72951;SDS011;61102;51.956;5.878;2022-11-23T05:57:07;9.00;;;1.13;;
72951;SDS011;61102;51.956;5.878;2022-11-23T05:59:39;8.68;;;0.77;;
72951;SDS011;61102;51.956;5.878;2022-11-23T06:02:07;8.68;;;1.20;;
72951;SDS011;61102;51.956;5.878;2022-11-23T06:04:34;5.70;;;0.85;;
72951;SDS011;61102;51.956;5.878;2022-11-23T06:07:02;5.32;;;0.82;;
72951;SDS011;61102;51.956;5.878;2022-11-23T06:09:37;7.35;;;1.00;;
72951;SDS011;61102;51.956;5.878;2022-11-23T06:12:07;7.20;;;0.95;;
72951;SDS011;61102;51.956;5.878;2022-11-23T06:14:34;7.88;;;0.80;;
72951;SDS011;61102;51.956;5.878;2022-11-23T06:17:00;6.72;;;0.82;;
72951;SDS011;61102;51.956;5.878;2022-11-23T06:19:37;12.07;;;1.40;;
72951;SDS011;61102;51.956;5.878;2022-11-23T06:22:04;9.60;;;1.33;;
72951;SDS011;61102;51.956;5.878;2022-11-23T06:24:36;8.85;;;1.00;;
72951;SDS011;61102;51.956;5.878;2022-11-23T06:27:22;8.02;;;1.23;;
72951;SDS011;61102;51.956;5.878;2022-11-23T06:29:50;5.85;;;1.00;;
72951;SDS011;61102;51.956;5.878;2022-11-23T06:32:19;10.13;;;1.15;;
72951;SDS011;61102;51.956;5.878;2022-11-23T06:34:46;5.20;;;0.80;;
72951;SDS011;61102;51.956;5.878;2022-11-23T06:37:12;6.93;;;0.80;;
72951;SDS011;61102;51.956;5.878;2022-11-23T06:39:38;7.70;;;1.33;;
72951;SDS011;61102;51.956;5.878;2022-11-23T06:42:07;9.98;;;1.00;;
72951;SDS011;61102;51.956;5.878;2022-11-23T06:44:34;10.05;;;1.10;;
72951;SDS011;61102;51.956;5.878;2022-11-23T06:47:01;8.90;;;1.10;;
72951;SDS011;61102;51.956;5.878;2022-11-23T06:49:27;9.63;;;1.25;;
72951;SDS011;61102;51.956;5.878;2022-11-23T06:52:11;12.18;;;1.40;;
72951;SDS011;61102;51.956;5.878;2022-11-23T06:54:38;12.00;;;1.42;;
72951;SDS011;61102;51.956;5.878;2022-11-23T06:57:08;10.32;;;1.13;;
72951;SDS011;61102;51.956;5.878;2022-11-23T06:59:34;6.00;;;1.00;;
72951;SDS011;61102;51.956;5.878;2022-11-23T07:02:02;7.13;;;1.00;;
72951;SDS011;61102;51.956;5.878;2022-11-23T07:04:33;12.13;;;1.30;;
72951;SDS011;61102;51.956;5.878;2022-11-23T07:07:03;11.10;;;1.25;;
72951;SDS011;61102;51.956;5.878;2022-11-23T07:09:40;7.32;;;1.10;;
72951;SDS011;61102;51.956;5.878;2022-11-23T07:12:20;10.77;;;1.30;;
72951;SDS011;61102;51.956;5.878;2022-11-23T07:14:46;11.05;;;1.10;;
72951;SDS011;61102;51.956;5.878;2022-11-23T07:17:13;8.23;;;1.08;;
72951;SDS011;61102;51.956;5.878;2022-11-23T07:19:40;6.95;;;0.90;;
72951;SDS011;61102;51.956;5.878;2022-11-23T07:22:08;6.65;;;0.80;;
72951;SDS011;61102;51.956;5.878;2022-11-23T07:24:36;6.00;;;0.93;;
72951;SDS011;61102;51.956;5.878;2022-11-23T07:27:05;8.55;;;1.45;;
72951;SDS011;61102;51.956;5.878;2022-11-23T07:29:31;11.82;;;1.33;;
72951;SDS011;61102;51.956;5.878;2022-11-23T07:31:57;8.75;;;1.25;;
72951;SDS011;61102;51.956;5.878;2022-11-23T07:34:26;5.95;;;0.93;;
72951;SDS011;61102;51.956;5.878;2022-11-23T07:36:54;8.48;;;1.08;;
72951;SDS011;61102;51.956;5.878;2022-11-23T07:39:20;8.30;;;1.42;;
72951;SDS011;61102;51.956;5.878;2022-11-23T07:41:48;6.32;;;1.00;;
72951;SDS011;61102;51.956;5.878;2022-11-23T07:44:20;5.43;;;0.90;;
72951;SDS011;61102;51.956;5.878;2022-11-23T07:46:52;7.90;;;1.08;;
72951;SDS011;61102;51.956;5.878;2022-11-23T07:49:19;7.55;;;0.98;;
72951;SDS011;61102;51.956;5.878;2022-11-23T07:51:45;7.20;;;1.10;;
72951;SDS011;61102;51.956;5.878;2022-11-23T07:54:11;10.57;;;1.10;;
72951;SDS011;61102;51.956;5.878;2022-11-23T07:56:38;8.35;;;1.27;;
72951;SDS011;61102;51.956;5.878;2022-11-23T07:59:05;10.32;;;1.40;;
72951;SDS011;61102;51.956;5.878;2022-11-23T08:01:31;6.63;;;0.90;;
72951;SDS011;61102;51.956;5.878;2022-11-23T08:03:57;8.93;;;0.95;;
72951;SDS011;61102;51.956;5.878;2022-11-23T08:06:27;7.05;;;0.95;;
72951;SDS011;61102;51.956;5.878;2022-11-23T08:08:54;6.57;;;1.02;;
72951;SDS011;61102;51.956;5.878;2022-11-23T08:11:20;6.70;;;1.88;;
72951;SDS011;61102;51.956;5.878;2022-11-23T08:13:47;12.48;;;1.50;;
72951;SDS011;61102;51.956;5.878;2022-11-23T08:16:15;6.13;;;1.10;;
72951;SDS011;61102;51.956;5.878;2022-11-23T08:21:13;8.93;;;1.10;;
72951;SDS011;61102;51.956;5.878;2022-11-23T08:23:40;9.35;;;1.17;;
72951;SDS011;61102;51.956;5.878;2022-11-23T08:26:06;7.93;;;1.00;;
72951;SDS011;61102;51.956;5.878;2022-11-23T08:28:36;9.15;;;1.10;;
72951;SDS011;61102;51.956;5.878;2022-11-23T08:31:07;7.72;;;1.08;;
72951;SDS011;61102;51.956;5.878;2022-11-23T08:33:36;9.93;;;1.38;;
72951;SDS011;61102;51.956;5.878;2022-11-23T08:36:06;8.68;;;1.00;;
72951;SDS011;61102;51.956;5.878;2022-11-23T08:38:33;9.60;;;1.10;;
72951;SDS011;61102;51.956;5.878;2022-11-23T08:41:00;9.80;;;1.10;;
72951;SDS011;61102;51.956;5.878;2022-11-23T08:43:27;9.57;;;1.45;;
72951;SDS011;61102;51.956;5.878;2022-11-23T08:45:54;8.27;;;0.90;;
72951;SDS011;61102;51.956;5.878;2022-11-23T08:48:21;9.80;;;1.25;;
72951;SDS011;61102;51.956;5.878;2022-11-23T08:50:47;10.93;;;1.33;;
72951;SDS011;61102;51.956;5.878;2022-11-23T08:53:14;12.18;;;1.35;;
72951;SDS011;61102;51.956;5.878;2022-11-23T08:55:41;10.70;;;1.33;;
72951;SDS011;61102;51.956;5.878;2022-11-23T08:58:07;10.57;;;1.63;;
72951;SDS011;61102;51.956;5.878;2022-11-23T09:00:34;10.52;;;1.20;;
72951;SDS011;61102;51.956;5.878;2022-11-23T09:03:00;8.20;;;1.25;;
72951;SDS011;61102;51.956;5.878;2022-11-23T09:05:27;9.38;;;1.38;;
72951;SDS011;61102;51.956;5.878;2022-11-23T09:07:54;7.57;;;0.95;;
72951;SDS011;61102;51.956;5.878;2022-11-23T09:10:23;11.27;;;1.55;;
72951;SDS011;61102;51.956;5.878;2022-11-23T09:12:50;14.27;;;1.77;;
72951;SDS011;61102;51.956;5.878;2022-11-23T09:15:17;7.97;;;1.17;;
72951;SDS011;61102;51.956;5.878;2022-11-23T09:17:43;11.43;;;1.38;;
72951;SDS011;61102;51.956;5.878;2022-11-23T09:20:10;8.10;;;1.13;;
72951;SDS011;61102;51.956;5.878;2022-11-23T09:22:37;9.18;;;1.40;;
72951;SDS011;61102;51.956;5.878;2022-11-23T09:25:03;11.60;;;1.30;;
72951;SDS011;61102;51.956;5.878;2022-11-23T09:29:57;10.02;;;1.23;;
72951;SDS011;61102;51.956;5.878;2022-11-23T09:32:23;10.00;;;1.35;;
72951;SDS011;61102;51.956;5.878;2022-11-23T09:34:49;8.70;;;1.13;;
72951;SDS011;61102;51.956;5.878;2022-11-23T09:37:16;10.88;;;1.23;;
72951;SDS011;61102;51.956;5.878;2022-11-23T09:39:42;8.90;;;1.10;;
72951;SDS011;61102;51.956;5.878;2022-11-23T09:47:50;8.65;;;1.17;;
72951;SDS011;61102;51.956;5.878;2022-11-23T09:53:10;9.23;;;1.15;;
72951;SDS011;61102;51.956;5.878;2022-11-23T09:55:41;8.38;;;1.17;;
72951;SDS011;61102;51.956;5.878;2022-11-23T09:58:15;8.50;;;1.58;;
72951;SDS011;61102;51.956;5.878;2022-11-23T10:00:50;8.90;;;1.30;;
72951;SDS011;61102;51.956;5.878;2022-11-23T10:03:18;7.75;;;1.00;;
72951;SDS011;61102;51.956;5.878;2022-11-23T10:06:00;7.50;;;1.00;;
72951;SDS011;61102;51.956;5.878;2022-11-23T10:08:34;12.45;;;1.40;;
72951;SDS011;61102;51.956;5.878;2022-11-23T10:14:00;11.05;;;1.23;;
72951;SDS011;61102;51.956;5.878;2022-11-23T10:22:21;8.55;;;1.40;;
72951;SDS011;61102;51.956;5.878;2022-11-23T10:24:53;8.48;;;1.20;;
72951;SDS011;61102;51.956;5.878;2022-11-23T10:27:22;11.70;;;1.60;;
72951;SDS011;61102;51.956;5.878;2022-11-23T10:29:49;8.23;;;1.10;;
72951;SDS011;61102;51.956;5.878;2022-11-23T10:37:41;10.00;;;1.20;;
72951;SDS011;61102;51.956;5.878;2022-11-23T10:42:58;6.10;;;0.95;;
72951;SDS011;61102;51.956;5.878;2022-11-23T10:45:27;7.88;;;1.20;;
72951;SDS011;61102;51.956;5.878;2022-11-23T10:47:57;9.00;;;1.40;;
72951;SDS011;61102;51.956;5.878;2022-11-23T10:50:26;11.63;;;1.60;;
72951;SDS011;61102;51.956;5.878;2022-11-23T10:55:53;11.73;;;1.65;;
72951;SDS011;61102;51.956;5.878;2022-11-23T10:58:29;11.40;;;1.20;;
72951;SDS011;61102;51.956;5.878;2022-11-23T11:01:00;11.05;;;1.42;;
72951;SDS011;61102;51.956;5.878;2022-11-23T11:03:51;8.55;;;1.20;;
72951;SDS011;61102;51.956;5.878;2022-11-23T11:06:28;7.50;;;1.05;;
72951;SDS011;61102;51.956;5.878;2022-11-23T11:08:57;12.45;;;1.58;;
72951;SDS011;61102;51.956;5.878;2022-11-23T11:14:04;8.07;;;1.00;;
72951;SDS011;61102;51.956;5.878;2022-11-23T11:16:45;8.48;;;1.40;;
72951;SDS011;61102;51.956;5.878;2022-11-23T11:19:25;8.20;;;1.10;;
72951;SDS011;61102;51.956;5.878;2022-11-23T11:21:56;8.68;;;1.00;;
72951;SDS011;61102;51.956;5.878;2022-11-23T11:27:11;7.82;;;1.10;;
72951;SDS011;61102;51.956;5.878;2022-11-23T11:35:12;6.15;;;1.13;;
72951;SDS011;61102;51.956;5.878;2022-11-23T11:37:42;8.90;;;0.93;;
72951;SDS011;61102;51.956;5.878;2022-11-23T11:45:31;6.93;;;0.88;;
72951;SDS011;61102;51.956;5.878;2022-11-23T11:50:57;8.10;;;0.93;;
72951;SDS011;61102;51.956;5.878;2022-11-23T11:53:32;10.00;;;1.52;;
72951;SDS011;61102;51.956;5.878;2022-11-23T11:56:10;7.78;;;0.98;;
72951;SDS011;61102;51.956;5.878;2022-11-23T11:59:19;7.03;;;0.93;;
72951;SDS011;61102;51.956;5.878;2022-11-23T12:10:32;4.90;;;0.70;;
72951;SDS011;61102;51.956;5.878;2022-11-23T12:15:53;8.27;;;1.10;;
72951;SDS011;61102;51.956;5.878;2022-11-23T12:27:59;8.95;;;0.93;;
72951;SDS011;61102;51.956;5.878;2022-11-23T12:30:23;7.90;;;1.15;;
72951;SDS011;61102;51.956;5.878;2022-11-23T12:44:37;5.78;;;0.80;;
72951;SDS011;61102;51.956;5.878;2022-11-23T12:50:19;6.63;;;1.00;;
72951;SDS011;61102;51.956;5.878;2022-11-23T12:56:39;8.52;;;0.90;;
72951;SDS011;61102;51.956;5.878;2022-11-23T12:58:56;5.50;;;0.75;;
72951;SDS011;61102;51.956;5.878;2022-11-23T13:01:27;5.32;;;0.77;;
72951;SDS011;61102;51.956;5.878;2022-11-23T13:09:32;6.38;;;0.80;;
72951;SDS011;61102;51.956;5.878;2022-11-23T13:12:26;5.70;;;0.75;;
72951;SDS011;61102;51.956;5.878;2022-11-23T13:15:29;9.57;;;1.15;;
72951;SDS011;61102;51.956;5.878;2022-11-23T13:23:59;6.35;;;0.80;;
72951;SDS011;61102;51.956;5.878;2022-11-23T13:26:26;4.68;;;0.47;;
72951;SDS011;61102;51.956;5.878;2022-11-23T13:28:54;8.48;;;1.00;;
72951;SDS011;61102;51.956;5.878;2022-11-23T13:31:27;4.05;;;0.70;;
72951;SDS011;61102;51.956;5.878;2022-11-23T13:37:11;6.65;;;0.60;;
72951;SDS011;61102;51.956;5.878;2022-11-23T13:42:15;6.60;;;0.90;;
72951;SDS011;61102;51.956;5.878;2022-11-23T13:49:40;4.40;;;0.57;;
72951;SDS011;61102;51.956;5.878;2022-11-23T13:55:03;5.00;;;0.60;;
72951;SDS011;61102;51.956;5.878;2022-11-23T13:57:44;4.43;;;0.70;;
72951;SDS011;61102;51.956;5.878;2022-11-23T14:00:45;5.82;;;0.52;;
72951;SDS011;61102;51.956;5.878;2022-11-23T14:08:39;6.80;;;0.82;;
72951;SDS011;61102;51.956;5.878;2022-11-23T14:11:10;9.40;;;0.98;;
72951;SDS011;61102;51.956;5.878;2022-11-23T14:13:39;4.28;;;0.60;;
72951;SDS011;61102;51.956;5.878;2022-11-23T14:16:17;5.68;;;0.77;;
72951;SDS011;61102;51.956;5.878;2022-11-23T14:22:10;3.83;;;0.52;;
72951;SDS011;61102;51.956;5.878;2022-11-23T14:24:54;5.22;;;0.60;;
72951;SDS011;61102;51.956;5.878;2022-11-23T14:27:37;4.82;;;0.70;;
72951;SDS011;61102;51.956;5.878;2022-11-23T14:35:37;5.57;;;0.75;;
72951;SDS011;61102;51.956;5.878;2022-11-23T14:38:30;3.58;;;0.60;;
72951;SDS011;61102;51.956;5.878;2022-11-23T14:43:42;8.15;;;0.90;;
72951;SDS011;61102;51.956;5.878;2022-11-23T14:46:15;5.40;;;0.90;;
72951;SDS011;61102;51.956;5.878;2022-11-23T14:48:44;5.22;;;0.95;;
72951;SDS011;61102;51.956;5.878;2022-11-23T14:51:18;6.38;;;0.82;;
72951;SDS011;61102;51.956;5.878;2022-11-23T14:53:51;5.65;;;0.85;;
72951;SDS011;61102;51.956;5.878;2022-11-23T14:56:21;7.88;;;0.70;;
72951;SDS011;61102;51.956;5.878;2022-11-23T14:59:03;6.45;;;0.70;;
72951;SDS011;61102;51.956;5.878;2022-11-23T15:01:33;4.40;;;0.60;;
72951;SDS011;61102;51.956;5.878;2022-11-23T15:04:09;5.50;;;0.80;;
72951;SDS011;61102;51.956;5.878;2022-11-23T15:06:48;8.95;;;0.85;;
72951;SDS011;61102;51.956;5.878;2022-11-23T15:12:27;4.22;;;0.50;;
72951;SDS011;61102;51.956;5.878;2022-11-23T15:14:54;6.97;;;1.10;;
72951;SDS011;61102;51.956;5.878;2022-11-23T15:17:27;6.15;;;0.82;;
72951;SDS011;61102;51.956;5.878;2022-11-23T15:19:59;5.60;;;0.95;;
72951;SDS011;61102;51.956;5.878;2022-11-23T15:22:27;4.05;;;0.93;;
72951;SDS011;61102;51.956;5.878;2022-11-23T15:24:53;3.80;;;0.65;;
72951;SDS011;61102;51.956;5.878;2022-11-23T15:27:30;5.07;;;0.65;;
72951;SDS011;61102;51.956;5.878;2022-11-23T15:29:57;3.80;;;0.65;;
72951;SDS011;61102;51.956;5.878;2022-11-23T15:32:26;3.15;;;0.47;;
72951;SDS011;61102;51.956;5.878;2022-11-23T15:34:55;3.67;;;0.38;;
72951;SDS011;61102;51.956;5.878;2022-11-23T15:37:23;5.00;;;0.60;;
72951;SDS011;61102;51.956;5.878;2022-11-23T15:39:51;8.15;;;1.25;;
72951;SDS011;61102;51.956;5.878;2022-11-23T15:42:20;4.35;;;0.80;;
72951;SDS011;61102;51.956;5.878;2022-11-23T15:44:49;3.47;;;0.70;;
72951;SDS011;61102;51.956;5.878;2022-11-23T15:47:21;5.95;;;0.80;;
72951;SDS011;61102;51.956;5.878;2022-11-23T15:49:53;4.25;;;0.80;;
72951;SDS011;61102;51.956;5.878;2022-11-23T15:52:26;4.93;;;0.70;;
72951;SDS011;61102;51.956;5.878;2022-11-23T15:54:55;3.42;;;0.80;;
72951;SDS011;61102;51.956;5.878;2022-11-23T15:57:23;4.93;;;0.80;;
72951;SDS011;61102;51.956;5.878;2022-11-23T15:59:58;4.90;;;0.80;;
72951;SDS011;61102;51.956;5.878;2022-11-23T16:02:27;5.05;;;1.33;;
72951;SDS011;61102;51.956;5.878;2022-11-23T16:05:10;5.90;;;0.90;;
72951;SDS011;61102;51.956;5.878;2022-11-23T16:10:25;6.20;;;0.95;;
72951;SDS011;61102;51.956;5.878;2022-11-23T16:12:54;3.88;;;0.60;;
72951;SDS011;61102;51.956;5.878;2022-11-23T16:18:24;6.78;;;0.82;;
72951;SDS011;61102;51.956;5.878;2022-11-23T16:20:51;4.57;;;0.98;;
72951;SDS011;61102;51.956;5.878;2022-11-23T16:23:44;3.17;;;0.73;;
72951;SDS011;61102;51.956;5.878;2022-11-23T16:26:20;6.60;;;0.98;;
72951;SDS011;61102;51.956;5.878;2022-11-23T16:28:57;3.22;;;0.63;;
72951;SDS011;61102;51.956;5.878;2022-11-23T16:31:25;5.88;;;0.93;;
72951;SDS011;61102;51.956;5.878;2022-11-23T16:33:55;4.95;;;1.10;;
72951;SDS011;61102;51.956;5.878;2022-11-23T16:36:25;2.88;;;0.75;;
72951;SDS011;61102;51.956;5.878;2022-11-23T16:38:52;6.70;;;1.00;;
72951;SDS011;61102;51.956;5.878;2022-11-23T16:41:19;6.82;;;0.88;;
72951;SDS011;61102;51.956;5.878;2022-11-23T16:43:52;4.72;;;0.80;;
72951;SDS011;61102;51.956;5.878;2022-11-23T16:46:21;5.93;;;0.90;;
72951;SDS011;61102;51.956;5.878;2022-11-23T16:48:48;3.47;;;0.82;;
72951;SDS011;61102;51.956;5.878;2022-11-23T16:51:14;5.07;;;0.85;;
72951;SDS011;61102;51.956;5.878;2022-11-23T16:53:41;4.95;;;0.90;;
72951;SDS011;61102;51.956;5.878;2022-11-23T16:56:09;5.30;;;0.98;;
72951;SDS011;61102;51.956;5.878;2022-11-23T16:58:41;3.22;;;0.90;;
72951;SDS011;61102;51.956;5.878;2022-11-23T17:01:07;3.90;;;1.00;;
72951;SDS011;61102;51.956;5.878;2022-11-23T17:03:43;6.20;;;1.10;;
72951;SDS011;61102;51.956;5.878;2022-11-23T17:06:12;4.80;;;1.30;;
72951;SDS011;61102;51.956;5.878;2022-11-23T17:08:43;7.30;;;1.10;;
72951;SDS011;61102;51.956;5.878;2022-11-23T17:11:13;6.85;;;1.60;;
72951;SDS011;61102;51.956;5.878;2022-11-23T17:13:41;5.18;;;0.90;;
72951;SDS011;61102;51.956;5.878;2022-11-23T17:16:15;3.35;;;0.85;;
72951;SDS011;61102;51.956;5.878;2022-11-23T17:18:44;3.92;;;0.88;;
72951;SDS011;61102;51.956;5.878;2022-11-23T17:21:10;3.78;;;1.00;;
72951;SDS011;61102;51.956;5.878;2022-11-23T17:23:37;5.68;;;0.90;;
72951;SDS011;61102;51.956;5.878;2022-11-23T17:26:06;4.43;;;1.10;;
72951;SDS011;61102;51.956;5.878;2022-11-23T17:28:42;5.50;;;1.10;;
72951;SDS011;61102;51.956;5.878;2022-11-23T17:31:09;4.13;;;0.73;;
72951;SDS011;61102;51.956;5.878;2022-11-23T17:33:35;4.45;;;1.02;;
72951;SDS011;61102;51.956;5.878;2022-11-23T17:36:03;5.07;;;1.10;;
72951;SDS011;61102;51.956;5.878;2022-11-23T17:38:29;4.60;;;0.90;;
72951;SDS011;61102;51.956;5.878;2022-11-23T17:40:56;4.88;;;0.85;;
72951;SDS011;61102;51.956;5.878;2022-11-23T17:43:22;2.90;;;0.80;;